Time;durP1;ratioP1;P1;durP2;ratioP2;P2;SDS_P1;SDS_P2;PMS_P1;PMS_P2;Temp;Humidity;BMP_temperature;BMP_pressure;BME280_temperature;BME280_humidity;BME280_pressure;Samples;Min_cycle;Max_cycle;Signal;HPM_P1;HPM_P2
2022/02/17 00:01:11;;;;;;;0.40;0.20;;;11.60;99.90;;;;;;5070976;28;21095;-83
2022/02/17 00:03:38;;;;;;;1.47;0.30;;;11.20;99.90;;;;;;5087509;28;20628;-82
2022/02/17 00:06:05;;;;;;;0.30;0.20;;;11.20;99.90;;;;;;5089585;28;20673;-83
2022/02/17 00:08:32;;;;;;;0.40;0.30;;;11.30;99.90;;;;;;5071678;28;20728;-82
2022/02/17 00:11:00;;;;;;;0.30;0.20;;;11.30;99.90;;;;;;5070658;28;20658;-82
2022/02/17 00:13:27;;;;;;;0.33;0.23;;;11.50;99.90;;;;;;5070958;28;20719;-81
2022/02/17 00:15:54;;;;;;;0.83;0.30;;;11.40;99.90;;;;;;5072385;28;21067;-82
2022/02/17 00:18:22;;;;;;;0.50;0.30;;;11.50;99.90;;;;;;5090065;28;20627;-82
2022/02/17 00:20:49;;;;;;;0.30;0.20;;;11.60;99.90;;;;;;5076945;28;21275;-81
2022/02/17 00:23:16;;;;;;;0.30;0.20;;;11.60;99.90;;;;;;5083052;28;20728;-82
2022/02/17 00:25:43;;;;;;;0.50;0.30;;;11.50;99.90;;;;;;5088611;28;20648;-82
2022/02/17 00:28:11;;;;;;;0.30;0.27;;;11.60;99.90;;;;;;5069372;28;20716;-82
2022/02/17 00:30:38;;;;;;;0.40;0.30;;;11.50;99.90;;;;;;5080970;28;20620;-81
2022/02/17 00:33:05;;;;;;;1.03;0.30;;;;;;;;;;5070310;28;20637;-83
2022/02/17 00:35:32;;;;;;;0.30;0.30;;;11.70;99.90;;;;;;5086233;28;20656;-82
2022/02/17 00:37:59;;;;;;;0.30;0.20;;;11.80;99.90;;;;;;5074315;28;20917;-82
2022/02/17 00:40:26;;;;;;;0.30;0.20;;;11.70;99.90;;;;;;5075282;28;20651;-83
2022/02/17 00:42:53;;;;;;;0.30;0.20;;;11.80;99.90;;;;;;5087755;28;20621;-82
2022/02/17 00:45:21;;;;;;;0.30;0.20;;;11.90;99.90;;;;;;5074486;28;20617;-82
2022/02/17 00:47:49;;;;;;;0.63;0.33;;;11.70;99.90;;;;;;5079729;28;20620;-82
2022/02/17 00:50:17;;;;;;;0.30;0.20;;;11.70;99.90;;;;;;5069579;28;21155;-81
2022/02/17 00:52:43;;;;;;;0.40;0.30;;;11.60;99.90;;;;;;5071979;28;20641;-81
2022/02/17 00:55:11;;;;;;;0.37;0.23;;;11.80;99.90;;;;;;5073388;28;20620;-81
2022/02/17 00:57:37;;;;;;;0.57;0.40;;;11.70;99.90;;;;;;5069447;28;20963;-81
2022/02/17 01:00:06;;;;;;;0.40;0.40;;;11.70;99.90;;;;;;5084474;28;20685;-81
2022/02/17 01:02:34;;;;;;;0.30;0.30;;;11.70;99.90;;;;;;5077687;28;20652;-82
2022/02/17 01:05:01;;;;;;;0.40;0.30;;;;;;;;;;5074031;28;20671;-82
2022/02/17 01:07:28;;;;;;;0.30;0.20;;;11.60;99.90;;;;;;5069752;28;20636;-81
2022/02/17 01:09:56;;;;;;;0.60;0.30;;;11.30;99.90;;;;;;5075600;28;20636;-82
2022/02/17 01:12:25;;;;;;;1.00;0.53;;;11.50;99.90;;;;;;5073887;28;20617;-81
2022/02/17 01:14:53;;;;;;;0.50;0.50;;;11.50;99.90;;;;;;5069116;28;20643;-81
2022/02/17 01:17:20;;;;;;;0.40;0.30;;;11.40;99.90;;;;;;5070591;28;20625;-81
2022/02/17 01:19:49;;;;;;;1.27;0.30;;;11.10;99.90;;;;;;5079567;28;21099;-81
2022/02/17 01:22:16;;;;;;;0.43;0.30;;;11.30;99.90;;;;;;5081278;28;20687;-82
2022/02/17 01:24:45;;;;;;;1.03;0.37;;;;;;;;;;5078406;28;21197;-82
2022/02/17 01:27:12;;;;;;;0.40;0.30;;;11.10;99.90;;;;;;5072330;28;20656;-81
2022/02/17 01:29:40;;;;;;;0.40;0.30;;;11.10;99.90;;;;;;5073143;28;20962;-82
2022/02/17 01:32:08;;;;;;;0.97;0.40;;;11.10;99.90;;;;;;5072665;28;20996;-82
2022/02/17 01:34:36;;;;;;;0.30;0.20;;;10.80;99.90;;;;;;5077897;28;21035;-82
2022/02/17 01:37:05;;;;;;;0.30;0.20;;;11.00;99.90;;;;;;5076330;28;20620;-82
2022/02/17 01:39:32;;;;;;;0.40;0.30;;;10.90;99.90;;;;;;5087906;28;20623;-83
2022/02/17 01:41:59;;;;;;;0.40;0.23;;;11.00;99.90;;;;;;5068670;28;20981;-82
2022/02/17 01:44:27;;;;;;;1.47;0.30;;;10.90;99.90;;;;;;5077866;28;20635;-82
2022/02/17 01:46:54;;;;;;;0.30;0.20;;;10.90;99.90;;;;;;5077701;28;20676;-82
2022/02/17 01:49:20;;;;;;;0.40;0.40;;;10.90;99.90;;;;;;5068893;28;20657;-81
2022/02/17 01:51:47;;;;;;;0.30;0.20;;;10.90;99.90;;;;;;5072074;28;21239;-81
2022/02/17 01:54:17;;;;;;;0.40;0.40;;;10.90;99.90;;;;;;5068535;28;20612;-82
2022/02/17 01:56:45;;;;;;;0.70;0.40;;;11.10;99.90;;;;;;5088210;28;20734;-82
2022/02/17 01:59:13;;;;;;;1.17;0.30;;;10.90;99.90;;;;;;5083402;28;20624;-82
2022/02/17 02:01:40;;;;;;;0.40;0.30;;;10.90;99.90;;;;;;5088088;28;20663;-82
2022/02/17 02:04:07;;;;;;;0.30;0.20;;;10.60;99.90;;;;;;5078990;28;20624;-83
2022/02/17 02:06:34;;;;;;;0.40;0.23;;;10.80;99.90;;;;;;5067741;28;20624;-83
2022/02/17 02:09:02;;;;;;;0.40;0.30;;;10.70;99.90;;;;;;5069335;28;20612;-82
2022/02/17 02:11:32;;;;;;;0.30;0.20;;;10.70;99.90;;;;;;5085838;28;20673;-82
2022/02/17 02:14:00;;;;;;;0.50;0.50;;;10.80;99.90;;;;;;5070368;28;20686;-82
2022/02/17 02:16:27;;;;;;;0.40;0.30;;;10.20;99.90;;;;;;5077020;28;20619;-83
2022/02/17 02:18:54;;;;;;;0.67;0.30;;;10.60;99.90;;;;;;5078288;28;20635;-83
2022/02/17 02:21:23;;;;;;;0.37;0.37;;;10.50;99.90;;;;;;5075615;28;20764;-82
2022/02/17 02:23:50;;;;;;;0.40;0.30;;;10.50;99.90;;;;;;5072516;28;20631;-82
2022/02/17 02:26:17;;;;;;;0.40;0.20;;;10.50;99.90;;;;;;5087210;28;20620;-83
2022/02/17 02:28:44;;;;;;;0.30;0.20;;;10.50;99.90;;;;;;5077555;28;20649;-82
2022/02/17 02:31:12;;;;;;;0.30;0.20;;;10.30;99.90;;;;;;5066890;28;21284;-82
2022/02/17 02:33:39;;;;;;;0.40;0.30;;;10.50;99.90;;;;;;5079993;28;20696;-83
2022/02/17 02:36:07;;;;;;;0.30;0.20;;;10.80;99.90;;;;;;5086256;28;20718;-82
2022/02/17 02:38:35;;;;;;;0.40;0.40;;;10.50;99.90;;;;;;5067694;28;20963;-82
2022/02/17 02:41:02;;;;;;;0.70;0.30;;;10.40;99.90;;;;;;5083635;28;20671;-82
2022/02/17 02:43:29;;;;;;;0.53;0.20;;;10.30;99.90;;;;;;5076345;28;20628;-83
2022/02/17 02:45:56;;;;;;;0.50;0.30;;;10.70;99.90;;;;;;5075873;28;21653;-83
2022/02/17 02:48:23;;;;;;;0.40;0.37;;;10.40;99.90;;;;;;5086113;28;20626;-83
2022/02/17 02:50:51;;;;;;;1.27;0.30;;;10.30;99.90;;;;;;5073186;28;21210;-83
2022/02/17 02:53:18;;;;;;;0.40;0.30;;;10.10;99.90;;;;;;5073534;28;20627;-83
2022/02/17 02:55:48;;;;;;;0.30;0.27;;;10.40;99.90;;;;;;5085478;28;20619;-82
2022/02/17 02:58:18;;;;;;;0.30;0.20;;;10.40;99.90;;;;;;5066979;28;20615;-82
2022/02/17 03:00:46;;;;;;;0.37;0.30;;;10.10;99.90;;;;;;5083561;28;20686;-82
2022/02/17 03:03:15;;;;;;;0.90;0.40;;;10.20;99.90;;;;;;5084466;28;20647;-82
2022/02/17 03:05:44;;;;;;;0.40;0.40;;;10.30;99.90;;;;;;5089310;28;20683;-82
2022/02/17 03:08:12;;;;;;;0.40;0.30;;;10.30;99.90;;;;;;5080039;28;20628;-82
2022/02/17 03:10:39;;;;;;;0.30;0.20;;;10.40;99.90;;;;;;5085376;28;20613;-83
2022/02/17 03:13:08;;;;;;;0.40;0.30;;;10.30;99.90;;;;;;5077607;28;20978;-82
2022/02/17 03:15:35;;;;;;;0.40;0.23;;;10.40;99.90;;;;;;5090825;28;20988;-83
2022/02/17 03:18:02;;;;;;;0.40;0.30;;;10.30;99.90;;;;;;5071107;28;20629;-82
2022/02/17 03:20:29;;;;;;;0.40;0.30;;;10.30;99.90;;;;;;5080175;28;21211;-82
2022/02/17 03:22:56;;;;;;;0.73;0.30;;;10.60;99.90;;;;;;5084726;28;20651;-82
2022/02/17 03:25:23;;;;;;;0.30;0.20;;;10.40;99.90;;;;;;5069283;28;21513;-83
2022/02/17 03:27:50;;;;;;;0.37;0.30;;;10.40;99.90;;;;;;5089585;28;20762;-82
2022/02/17 03:30:18;;;;;;;3.63;0.30;;;10.40;99.90;;;;;;5082787;28;20754;-83
2022/02/17 03:32:45;;;;;;;0.40;0.20;;;10.40;99.90;;;;;;5079340;28;20665;-82
2022/02/17 03:35:13;;;;;;;0.30;0.20;;;10.40;99.90;;;;;;5091352;28;20701;-82
2022/02/17 03:37:40;;;;;;;0.30;0.20;;;10.30;99.90;;;;;;5075601;28;20625;-83
2022/02/17 03:40:08;;;;;;;0.30;0.20;;;10.50;99.90;;;;;;5086957;28;20945;-82
2022/02/17 03:42:35;;;;;;;0.40;0.30;;;10.30;99.90;;;;;;5077157;28;21393;-82
2022/02/17 03:45:02;;;;;;;0.30;0.20;;;10.30;99.90;;;;;;5088122;28;20622;-82
2022/02/17 03:47:31;;;;;;;0.30;0.20;;;10.30;99.90;;;;;;5075745;28;21223;-82
2022/02/17 03:49:57;;;;;;;0.30;0.20;;;10.30;99.90;;;;;;5089711;28;20637;-82
2022/02/17 03:52:24;;;;;;;0.57;0.30;;;9.90;99.90;;;;;;5080806;28;20629;-82
2022/02/17 03:54:51;;;;;;;0.40;0.20;;;10.30;99.90;;;;;;5082515;28;20731;-82
2022/02/17 03:57:18;;;;;;;0.60;0.60;;;10.30;99.90;;;;;;5074939;28;21465;-82
2022/02/17 03:59:45;;;;;;;0.30;0.30;;;10.20;99.90;;;;;;5073269;28;20640;-82
2022/02/17 04:02:12;;;;;;;0.30;0.30;;;10.30;99.90;;;;;;5084725;28;20702;-82
2022/02/17 04:04:40;;;;;;;0.40;0.20;;;10.60;99.90;;;;;;5073137;28;20712;-83
2022/02/17 04:07:07;;;;;;;0.40;0.30;;;10.30;99.90;;;;;;5090178;28;21414;-82
2022/02/17 04:09:34;;;;;;;0.30;0.30;;;10.40;99.90;;;;;;5074898;28;20639;-82
2022/02/17 04:12:01;;;;;;;0.67;0.40;;;10.40;99.90;;;;;;5075422;28;20619;-82
2022/02/17 04:14:28;;;;;;;0.30;0.20;;;;;;;;;;5073757;28;21079;-82
2022/02/17 04:16:55;;;;;;;0.50;0.20;;;10.50;99.90;;;;;;5075415;28;20616;-82
2022/02/17 04:19:22;;;;;;;1.27;0.20;;;10.70;99.90;;;;;;5081532;28;20792;-83
2022/02/17 04:21:50;;;;;;;0.40;0.20;;;10.40;99.90;;;;;;5070985;28;20761;-82
2022/02/17 04:24:17;;;;;;;0.30;0.20;;;10.50;99.90;;;;;;5081559;28;21028;-82
2022/02/17 04:26:44;;;;;;;0.40;0.30;;;10.70;99.90;;;;;;5085571;28;20774;-82
2022/02/17 04:29:11;;;;;;;0.40;0.30;;;10.60;99.90;;;;;;5090776;28;20608;-82
2022/02/17 04:31:38;;;;;;;0.50;0.37;;;10.60;99.90;;;;;;5100346;28;20615;-82
2022/02/17 04:34:05;;;;;;;0.30;0.20;;;10.50;99.90;;;;;;5097483;28;20643;-82
2022/02/17 04:36:32;;;;;;;1.33;0.83;;;10.60;99.90;;;;;;5090073;28;20624;-83
2022/02/17 04:39:00;;;;;;;0.80;0.80;;;10.90;99.90;;;;;;5094142;28;20631;-83
2022/02/17 04:44:12;;;;;;;1.40;0.40;;;10.40;99.90;;;;;;5101667;28;20631;-82
2022/02/17 04:46:39;;;;;;;0.30;0.20;;;10.90;99.90;;;;;;5101562;28;21209;-82
2022/02/17 04:49:06;;;;;;;0.47;0.47;;;10.50;99.90;;;;;;5090572;28;20627;-82
2022/02/17 04:51:33;;;;;;;1.03;0.40;;;10.70;99.90;;;;;;5106848;28;20658;-82
2022/02/17 04:54:01;;;;;;;0.40;0.30;;;10.50;99.90;;;;;;5099217;28;20659;-81
2022/02/17 04:56:28;;;;;;;0.30;0.20;;;10.70;99.90;;;;;;5109799;28;20618;-82
2022/02/17 04:58:55;;;;;;;0.70;0.40;;;10.50;99.90;;;;;;5107991;28;20624;-83
2022/02/17 05:01:21;;;;;;;3.50;0.47;;;10.60;99.90;;;;;;5101367;28;20623;-85
2022/02/17 05:03:48;;;;;;;0.40;0.40;;;10.70;99.90;;;;;;5108049;28;20719;-82
2022/02/17 05:06:15;;;;;;;0.40;0.37;;;10.60;99.90;;;;;;5089501;28;20722;-82
2022/02/17 05:08:42;;;;;;;0.40;0.40;;;10.60;99.90;;;;;;5103288;28;21087;-82
2022/02/17 05:11:10;;;;;;;0.50;0.30;;;10.60;99.90;;;;;;5092922;28;20735;-82
2022/02/17 05:13:37;;;;;;;0.40;0.40;;;10.60;99.90;;;;;;5086953;28;20761;-82
2022/02/17 05:16:05;;;;;;;0.30;0.20;;;10.60;99.90;;;;;;5101627;28;21011;-82
2022/02/17 05:18:32;;;;;;;0.67;0.40;;;10.50;99.90;;;;;;5104862;28;21265;-83
2022/02/17 05:20:59;;;;;;;0.47;0.20;;;12.50;99.90;;;;;;5091426;28;20628;-83
2022/02/17 05:23:25;;;;;;;0.43;0.33;;;10.60;99.90;;;;;;5102208;28;20670;-82
2022/02/17 05:25:52;;;;;;;0.30;0.30;;;10.40;99.90;;;;;;5098931;28;20623;-82
2022/02/17 05:28:20;;;;;;;0.50;0.27;;;10.50;99.90;;;;;;5088644;28;20731;-83
2022/02/17 05:30:47;;;;;;;0.30;0.30;;;10.60;99.90;;;;;;5094374;28;20627;-82
2022/02/17 05:33:16;;;;;;;0.40;0.20;;;10.60;99.90;;;;;;5100924;28;20674;-83
2022/02/17 05:35:43;;;;;;;1.50;0.33;;;10.30;99.90;;;;;;5095252;28;20643;-82
2022/02/17 05:38:10;;;;;;;0.37;0.30;;;;;;;;;;5108660;28;20688;-82
2022/02/17 05:40:37;;;;;;;1.30;0.27;;;10.20;99.90;;;;;;5103746;28;20625;-82
2022/02/17 05:43:05;;;;;;;0.40;0.30;;;10.50;99.90;;;;;;5092315;28;20758;-82
2022/02/17 05:45:36;;;;;;;1.20;0.50;;;10.60;99.90;;;;;;5105541;28;20546;-81
2022/02/17 05:48:03;;;;;;;0.87;0.33;;;10.60;99.90;;;;;;5095209;28;21028;-81
2022/02/17 05:50:29;;;;;;;0.30;0.20;;;10.60;99.90;;;;;;5095472;28;21176;-81
2022/02/17 05:52:56;;;;;;;0.40;0.30;;;10.80;99.90;;;;;;5107040;28;20657;-81
2022/02/17 05:55:23;;;;;;;0.40;0.40;;;10.60;99.90;;;;;;5108633;27;20687;-83
2022/02/17 05:57:50;;;;;;;0.90;0.40;;;10.50;99.90;;;;;;5088848;28;20656;-82
2022/02/17 06:00:19;;;;;;;0.50;0.20;;;10.50;99.90;;;;;;5100435;28;20626;-84
2022/02/17 06:02:47;;;;;;;1.67;0.40;;;11.00;99.90;;;;;;5090503;28;20663;-81
2022/02/17 06:05:16;;;;;;;0.30;0.30;;;10.50;99.90;;;;;;5108304;28;21199;-81
2022/02/17 06:07:44;;;;;;;0.60;0.47;;;10.60;99.90;;;;;;5094225;28;21168;-81
2022/02/17 06:10:11;;;;;;;1.10;1.00;;;10.20;99.90;;;;;;5097323;28;20623;-84
2022/02/17 06:12:41;;;;;;;0.60;0.60;;;10.70;99.90;;;;;;5089228;28;20619;-82
2022/02/17 06:15:10;;;;;;;0.70;0.70;;;10.40;99.90;;;;;;5088646;28;20655;-82
2022/02/17 06:17:37;;;;;;;2.13;0.67;;;10.30;99.90;;;;;;5095818;28;20619;-82
2022/02/17 06:20:06;;;;;;;2.00;0.60;;;10.40;99.90;;;;;;5099280;28;20649;-83
2022/02/17 06:22:33;;;;;;;0.50;0.40;;;;;;;;;;5102911;28;20724;-83
2022/02/17 06:25:00;;;;;;;2.77;0.60;;;10.40;99.90;;;;;;5089695;28;20666;-83
2022/02/17 06:27:29;;;;;;;1.23;0.60;;;;;;;;;;5100966;28;20678;-84
2022/02/17 06:29:56;;;;;;;2.00;0.73;;;10.20;99.90;;;;;;5090508;28;20622;-83
2022/02/17 06:32:23;;;;;;;0.50;0.50;;;;;;;;;;5101095;28;20656;-84
2022/02/17 06:34:50;;;;;;;1.67;0.97;;;10.10;99.90;;;;;;5089266;28;20623;-83
2022/02/17 06:37:18;;;;;;;5.37;1.13;;;10.20;99.90;;;;;;5089082;28;20658;-83
2022/02/17 06:39:45;;;;;;;3.33;1.03;;;10.10;99.90;;;;;;5091176;28;20749;-83
2022/02/17 06:42:12;;;;;;;3.50;1.00;;;10.00;99.90;;;;;;5101340;28;20667;-83
2022/02/17 06:44:39;;;;;;;1.53;1.03;;;;;;;;;;5090392;28;20644;-83
2022/02/17 06:47:07;;;;;;;2.00;1.00;;;10.20;99.90;;;;;;5089763;28;20651;-84
2022/02/17 06:49:34;;;;;;;1.47;1.03;;;;;;;;;;5089899;28;20615;-84
2022/02/17 06:52:04;;;;;;;1.20;1.00;;;10.50;99.90;;;;;;5090600;28;20739;-83
2022/02/17 06:54:33;;;;;;;1.70;1.03;;;10.00;99.90;;;;;;5056161;28;20650;-83
2022/02/17 06:57:03;;;;;;;2.97;1.27;;;9.80;99.90;;;;;;5082522;28;20629;-82
2022/02/17 06:59:29;;;;;;;4.93;1.33;;;10.00;99.90;;;;;;5088380;28;20718;-84
2022/02/17 07:01:56;;;;;;;5.00;1.70;;;9.80;99.90;;;;;;5087411;28;20637;-83
2022/02/17 07:04:23;;;;;;;3.00;0.90;;;9.80;99.90;;;;;;5103514;28;21248;-82
2022/02/17 07:06:50;;;;;;;2.63;1.40;;;9.80;99.90;;;;;;5094816;28;20687;-83
2022/02/17 07:09:17;;;;;;;6.37;1.13;;;10.00;99.90;;;;;;5095208;28;20713;-83
2022/02/17 07:11:45;;;;;;;8.43;1.60;;;9.90;99.90;;;;;;5089786;28;20717;-83
2022/02/17 07:14:12;;;;;;;5.37;1.70;;;10.00;99.90;;;;;;5101918;28;20626;-84
2022/02/17 07:16:40;;;;;;;4.50;1.83;;;9.80;99.90;;;;;;5094060;28;20705;-83
2022/02/17 07:19:07;;;;;;;4.57;2.43;;;9.90;99.90;;;;;;5088564;28;20710;-83
2022/02/17 07:21:35;;;;;;;7.07;2.20;;;9.90;99.90;;;;;;5088469;28;20660;-83
2022/02/17 07:24:02;;;;;;;2.07;1.10;;;9.80;99.90;;;;;;5108591;28;20676;-83
2022/02/17 07:26:30;;;;;;;3.43;1.30;;;9.60;99.90;;;;;;5103225;28;20675;-83
2022/02/17 07:28:58;;;;;;;3.03;1.50;;;9.30;99.90;;;;;;5088154;28;20623;-84
2022/02/17 07:31:25;;;;;;;3.50;1.23;;;9.60;99.90;;;;;;5092902;28;21193;-83
2022/02/17 07:33:52;;;;;;;4.00;2.00;;;10.30;99.90;;;;;;5097016;28;20714;-83
2022/02/17 07:36:21;;;;;;;3.73;0.90;;;9.20;99.90;;;;;;5105371;28;20622;-83
2022/02/17 07:38:49;;;;;;;2.53;1.57;;;;;;;;;;5088385;28;20694;-83
2022/02/17 07:41:16;;;;;;;0.77;0.70;;;9.80;99.90;;;;;;5091000;28;20694;-82
2022/02/17 07:43:43;;;;;;;1.07;0.77;;;9.70;99.90;;;;;;5105792;28;21019;-82
2022/02/17 07:46:12;;;;;;;2.60;1.50;;;9.90;99.90;;;;;;5090446;28;20623;-83
2022/02/17 07:48:39;;;;;;;1.50;1.10;;;9.80;99.90;;;;;;5090122;28;21000;-83
2022/02/17 07:51:07;;;;;;;0.70;0.70;;;9.80;99.90;;;;;;5092723;28;20628;-82
2022/02/17 07:53:35;;;;;;;4.10;1.30;;;9.80;99.90;;;;;;5109105;28;20720;-82
2022/02/17 07:56:02;;;;;;;1.63;0.93;;;9.90;99.90;;;;;;5096161;27;20665;-83
2022/02/17 07:58:29;;;;;;;5.07;1.27;;;9.90;99.90;;;;;;5083973;28;20665;-82
2022/02/17 08:00:56;;;;;;;2.90;1.27;;;10.00;99.90;;;;;;5086793;28;20647;-82
2022/02/17 08:03:24;;;;;;;2.47;1.53;;;10.00;99.90;;;;;;5084523;28;20693;-83
2022/02/17 08:05:51;;;;;;;3.03;1.13;;;10.00;99.90;;;;;;5086093;28;20641;-82
2022/02/17 08:08:19;;;;;;;1.37;0.93;;;10.00;99.20;;;;;;5106621;28;20623;-82
2022/02/17 08:10:46;;;;;;;1.53;1.00;;;10.10;99.90;;;;;;5099071;28;20732;-83
2022/02/17 08:13:13;;;;;;;6.23;1.70;;;10.20;99.90;;;;;;5097794;28;21191;-83
2022/02/17 08:15:41;;;;;;;5.33;1.33;;;10.30;97.10;;;;;;5082589;28;20622;-83
2022/02/17 08:18:08;;;;;;;3.50;1.30;;;10.30;97.30;;;;;;5095187;28;20622;-83
2022/02/17 08:20:37;;;;;;;3.33;1.33;;;10.40;96.80;;;;;;5099494;28;20628;-82
2022/02/17 08:23:04;;;;;;;1.97;1.33;;;11.20;99.90;;;;;;5088665;28;21029;-83
2022/02/17 08:25:31;;;;;;;4.80;1.90;;;10.30;97.00;;;;;;5091698;28;21149;-83
2022/02/17 08:27:58;;;;;;;1.50;1.00;;;10.50;95.80;;;;;;5090682;28;20665;-82
2022/02/17 08:30:25;;;;;;;3.63;1.63;;;10.50;94.90;;;;;;5087760;28;20669;-82
2022/02/17 08:32:56;;;;;;;3.40;1.33;;;10.40;99.90;;;;;;5091197;28;20693;-82
2022/02/17 08:35:23;;;;;;;6.67;1.30;;;10.50;94.30;;;;;;5089939;28;21231;-83
2022/02/17 08:37:51;;;;;;;4.40;1.60;;;10.50;93.90;;;;;;5092959;28;20657;-83
2022/02/17 08:40:18;;;;;;;3.87;2.20;;;;;;;;;;5093776;28;20718;-82
2022/02/17 08:42:46;;;;;;;2.93;0.80;;;;;;;;;;5091257;28;20682;-82
2022/02/17 08:45:13;;;;;;;6.60;1.30;;;10.50;98.10;;;;;;5107962;28;20980;-82
2022/02/17 08:47:40;;;;;;;4.70;1.47;;;10.20;98.30;;;;;;5077624;28;21019;-82
2022/02/17 08:50:09;;;;;;;4.77;1.70;;;10.50;98.10;;;;;;5090906;28;20677;-83
2022/02/17 08:52:36;;;;;;;5.63;1.67;;;10.20;99.90;;;;;;5081100;28;20706;-82
2022/02/17 08:55:06;;;;;;;7.33;2.03;;;10.60;92.40;;;;;;5095691;28;20634;-82
2022/02/17 08:57:33;;;;;;;5.20;2.23;;;10.40;92.80;;;;;;5083417;28;20669;-82
2022/02/17 09:00:00;;;;;;;7.73;2.23;;;10.30;97.40;;;;;;5088476;28;20625;-82
2022/02/17 09:02:27;;;;;;;5.97;1.93;;;10.60;99.90;;;;;;5089325;28;20636;-82
2022/02/17 09:04:54;;;;;;;4.60;2.40;;;10.80;99.90;;;;;;5097564;28;20638;-82
2022/02/17 09:07:20;;;;;;;5.53;1.93;;;10.60;99.90;;;;;;5088199;28;20727;-82
2022/02/17 09:09:47;;;;;;;3.27;1.27;;;10.80;91.90;;;;;;5088725;28;20651;-82
2022/02/17 09:12:16;;;;;;;5.40;2.40;;;10.90;95.90;;;;;;5092558;28;20987;-82
2022/02/17 09:14:42;;;;;;;2.50;1.37;;;10.90;98.90;;;;;;5089194;28;20628;-82
2022/02/17 09:17:09;;;;;;;5.10;1.50;;;10.80;98.70;;;;;;5082271;28;20620;-83
2022/02/17 09:19:37;;;;;;;5.70;2.00;;;11.20;93.90;;;;;;5089234;28;20701;-83
2022/02/17 09:22:04;;;;;;;10.23;2.60;;;10.80;96.00;;;;;;5089878;28;21222;-83
2022/02/17 09:24:31;;;;;;;6.60;1.53;;;10.90;86.20;;;;;;5091723;28;20671;-83
2022/02/17 09:26:58;;;;;;;3.93;1.47;;;10.90;95.70;;;;;;5088610;28;21181;-82
2022/02/17 09:29:26;;;;;;;9.83;2.93;;;10.90;84.50;;;;;;5092396;28;21388;-83
2022/02/17 09:31:53;;;;;;;5.80;2.13;;;;;;;;;;5089050;28;20894;-84
2022/02/17 09:34:20;;;;;;;4.70;2.07;;;10.30;94.40;;;;;;5095514;28;20747;-83
2022/02/17 09:36:47;;;;;;;1.93;1.47;;;10.80;91.10;;;;;;5089288;28;20643;-83
2022/02/17 09:39:14;;;;;;;7.33;2.33;;;11.00;81.80;;;;;;5097818;28;20624;-83
2022/02/17 09:41:42;;;;;;;11.00;1.77;;;11.00;95.30;;;;;;5089435;28;21099;-84
2022/02/17 09:44:11;;;;;;;6.70;2.17;;;11.10;82.00;;;;;;5105927;28;20749;-84
2022/02/17 09:46:44;;;;;;;8.40;1.97;;;10.60;94.00;;;;;;5096867;27;20721;-83
2022/02/17 09:49:15;;;;;;;2.23;1.30;;;11.00;80.60;;;;;;5094974;28;20639;-83
2022/02/17 09:51:43;;;;;;;5.33;1.90;;;10.80;79.10;;;;;;5089271;28;20644;-83
2022/02/17 09:54:10;;;;;;;3.90;1.30;;;10.70;94.80;;;;;;5088881;28;20749;-83
2022/02/17 09:56:38;;;;;;;5.53;1.87;;;10.60;80.60;;;;;;5098806;28;20722;-84
2022/02/17 09:59:05;;;;;;;7.10;2.50;;;10.30;90.50;;;;;;5081505;28;20719;-83
2022/02/17 10:01:33;;;;;;;4.00;1.80;;;10.40;82.10;;;;;;5090365;28;20724;-83
2022/02/17 10:04:14;;;;;;;5.17;2.40;;;10.10;95.70;;;;;;5088365;28;20651;-84
2022/02/17 10:06:43;;;;;;;8.23;2.73;;;10.20;85.60;;;;;;5090648;28;20623;-84
2022/02/17 10:09:11;;;;;;;7.90;1.97;;;10.40;87.80;;;;;;5093392;28;20634;-84
2022/02/17 10:11:40;;;;;;;5.57;2.13;;;10.10;95.80;;;;;;5087337;28;20626;-85
2022/02/17 10:14:08;;;;;;;7.90;2.40;;;10.50;89.30;;;;;;5097139;28;20619;-83
2022/02/17 10:16:54;;;;;;;6.43;2.30;;;10.60;88.70;;;;;;5099701;28;20654;-84
2022/02/17 10:19:25;;;;;;;6.00;2.13;;;10.70;88.70;;;;;;5087443;28;20726;-83
2022/02/17 10:22:01;;;;;;;8.30;1.83;;;10.70;88.10;;;;;;5087695;28;20630;-84
2022/02/17 10:24:39;;;;;;;8.50;2.20;;;11.50;96.80;;;;;;5098829;28;21639;-84
2022/02/17 10:27:10;;;;;;;11.70;2.37;;;10.70;93.10;;;;;;5091793;28;20623;-83
2022/02/17 10:29:38;;;;;;;5.47;2.40;;;10.90;88.00;;;;;;5087468;28;20632;-84
2022/02/17 10:32:08;;;;;;;4.03;2.03;;;11.10;95.70;;;;;;5082363;28;20726;-84
2022/02/17 10:34:37;;;;;;;3.10;1.77;;;10.80;96.00;;;;;;5084096;28;21260;-83
2022/02/17 10:37:04;;;;;;;4.60;2.23;;;11.10;96.80;;;;;;5106165;28;20633;-84
2022/02/17 10:39:37;;;;;;;6.67;2.37;;;11.00;87.00;;;;;;5102133;28;20633;-84
2022/02/17 10:42:07;;;;;;;5.87;2.60;;;10.90;87.30;;;;;;5097795;28;20629;-84
2022/02/17 10:44:36;;;;;;;8.90;2.10;;;10.70;88.70;;;;;;5108994;28;21246;-83
2022/02/17 10:47:18;;;;;;;7.43;1.87;;;10.70;97.60;;;;;;5090019;28;20627;-83
2022/02/17 10:49:49;;;;;;;4.20;1.00;;;10.60;89.50;;;;;;5082399;28;20625;-84
2022/02/17 10:52:30;;;;;;;9.40;2.23;;;10.70;87.20;;;;;;5088852;28;20624;-83
2022/02/17 10:55:11;;;;;;;8.70;2.20;;;10.70;87.30;;;;;;5088396;28;20635;-83
2022/02/17 10:57:38;;;;;;;4.77;2.90;;;10.60;87.40;;;;;;5067807;28;20689;-84
2022/02/17 11:00:17;;;;;;;6.03;2.23;;;10.70;97.30;;;;;;5094880;28;20663;-83
2022/02/17 11:02:44;;;;;;;7.90;2.27;;;10.70;87.30;;;;;;5100231;28;20656;-84
2022/02/17 11:05:13;;;;;;;6.83;2.20;;;10.70;87.20;;;;;;5088057;28;20717;-83
2022/02/17 11:07:41;;;;;;;6.83;2.33;;;10.50;91.70;;;;;;5086431;28;20620;-83
2022/02/17 11:10:09;;;;;;;7.00;1.97;;;10.40;95.90;;;;;;5087853;28;21344;-84
2022/02/17 11:12:37;;;;;;;4.70;1.80;;;10.70;86.00;;;;;;5105102;28;20618;-83
2022/02/17 11:15:06;;;;;;;9.10;2.27;;;12.80;96.20;;;;;;5091075;28;20731;-83
2022/02/17 11:17:36;;;;;;;5.07;2.30;;;10.80;95.30;;;;;;5095081;28;20755;-83
2022/02/17 11:20:07;;;;;;;7.50;1.87;;;11.10;82.60;;;;;;5087404;28;20631;-83
2022/02/17 11:22:35;;;;;;;4.93;1.87;;;11.30;93.20;;;;;;5097272;28;20652;-84
2022/02/17 11:25:03;;;;;;;8.30;2.87;;;11.10;93.70;;;;;;5095718;28;20694;-84
2022/02/17 11:27:29;;;;;;;3.00;1.63;;;11.10;81.60;;;;;;5107271;28;20616;-85
2022/02/17 11:29:56;;;;;;;5.47;2.00;;;10.80;93.20;;;;;;5108481;28;20623;-82
2022/02/17 11:32:25;;;;;;;9.77;2.30;;;10.90;78.40;;;;;;5093359;28;20627;-83
2022/02/17 11:34:55;;;;;;;8.30;2.50;;;10.40;90.40;;;;;;5099211;28;20666;-83
2022/02/17 11:37:44;;;;;;;9.03;2.70;;;10.60;90.90;;;;;;5091498;28;20628;-83
2022/02/17 11:40:15;;;;;;;5.20;1.93;;;10.70;78.00;;;;;;5106256;28;20737;-83
2022/02/17 11:42:45;;;;;;;2.93;2.07;;;10.80;77.50;;;;;;5091404;28;20670;-83
2022/02/17 11:45:15;;;;;;;5.73;1.90;;;10.90;87.10;;;;;;5090024;28;20709;-84
2022/02/17 11:48:06;;;;;;;4.43;1.83;;;10.80;92.10;;;;;;5090978;28;20718;-83
2022/02/17 11:50:44;;;;;;;10.77;2.60;;;10.80;79.40;;;;;;5091847;28;20643;-84
2022/02/17 11:53:29;;;;;;;4.47;2.13;;;10.80;78.30;;;;;;5103187;28;20670;-84
2022/02/17 11:56:35;;;;;;;6.23;2.40;;;11.00;89.60;;;;;;5102521;28;20631;-84
2022/02/17 11:59:19;;;;;;;6.73;2.30;;;10.80;77.20;;;;;;5098686;28;20632;-83
2022/02/17 12:01:46;;;;;;;4.43;2.20;;;10.80;76.90;;;;;;5102216;28;20739;-84
2022/02/17 12:04:19;;;;;;;2.57;1.90;;;11.10;92.30;;;;;;5102591;28;20701;-84
2022/02/17 12:06:48;;;;;;;8.77;2.27;;;11.00;77.60;;;;;;5099369;28;20754;-85
2022/02/17 12:09:41;;;;;;;10.57;2.30;;;11.10;86.30;;;;;;5096236;28;20616;-83
2022/02/17 12:12:47;;;;;;;6.57;2.67;;;10.90;76.80;;;;;;5103906;28;20630;-85
2022/02/17 12:15:16;;;;;;;6.73;2.07;;;10.90;77.60;;;;;;5092025;28;20619;-82
2022/02/17 12:17:46;;;;;;;10.13;2.20;;;10.00;92.60;;;;;;5100051;28;20638;-84
2022/02/17 12:20:15;;;;;;;10.63;2.57;;;10.50;93.90;;;;;;5092310;28;20655;-84
2022/02/17 12:22:50;;;;;;;12.00;3.03;;;10.70;81.90;;;;;;5071147;28;20731;-83
2022/02/17 12:25:22;;;;;;;5.60;2.60;;;10.50;81.70;;;;;;5091533;28;20694;-83
2022/02/17 12:27:50;;;;;;;6.03;2.03;;;10.70;90.70;;;;;;5103054;28;20743;-84
2022/02/17 12:30:26;;;;;;;10.00;2.60;;;10.60;93.90;;;;;;5091296;28;20819;-84
2022/02/17 12:33:07;;;;;;;6.10;2.20;;;10.60;80.10;;;;;;5090332;28;21082;-85
2022/02/17 12:35:35;;;;;;;9.37;2.53;;;10.80;92.80;;;;;;5091193;28;20950;-84
2022/02/17 12:38:04;;;;;;;6.27;2.30;;;10.90;93.80;;;;;;5093582;28;21033;-84
2022/02/17 12:40:33;;;;;;;6.97;3.17;;;10.90;79.20;;;;;;5102687;28;20624;-86
2022/02/17 12:43:00;;;;;;;11.43;2.80;;;11.30;80.70;;;;;;5106811;28;20650;-84
2022/02/17 12:45:40;;;;;;;14.23;2.93;;;11.10;87.40;;;;;;5108864;28;20663;-84
2022/02/17 12:48:08;;;;;;;7.17;2.33;;;11.00;77.60;;;;;;5104769;28;20682;-84
2022/02/17 12:50:36;;;;;;;8.23;2.33;;;11.00;77.60;;;;;;5091459;28;21200;-83
2022/02/17 12:53:06;;;;;;;12.47;2.80;;;11.10;77.10;;;;;;5091440;28;20656;-84
2022/02/17 12:55:46;;;;;;;10.40;2.33;;;11.10;77.80;;;;;;5092995;28;20677;-84
2022/02/17 12:58:24;;;;;;;7.37;2.67;;;11.40;83.30;;;;;;5092912;28;20639;-83
2022/02/17 13:00:51;;;;;;;8.97;3.53;;;11.50;73.50;;;;;;5096038;28;20616;-85